Orel 5 — EMFH — position and weather

sailwx.info

Track history (hours):
 
Tides and Currents Weather Stations Pressure Air Temp Water Temp Dewpoint Dewpoint Depression Visibility Wind Speed Wind Dir Waves Ship Positions

Orel 5

Last reported at 2018-Apr-23 13:30 UTC. Time now 2018-Apr-23 13:51 UTC.
Position N 43°27' E 028°43'.

Length 108 m; draft 2.6 m.

Type: Cargo ship. MMSI: 272059000.

Date/timePositionNaut miles runAvg speedWind from/ knotsBaromVisibWave heightAir tempDewpointWater temp
2018-Apr-23 13:30N 43°27' E 028°43'4 7.8
2018-Apr-23 13:00N 43°24' E 028°39'4 7.5
2018-Apr-23 12:30N 43°21' E 028°36'4 7.7
2018-Apr-23 11:59N 43°17' E 028°33'  
2018-Apr-21 07:09N 40°04' E 025°03'1 7.1
2018-Apr-21 06:59N 40°04' E 025°01'3 7.2
2018-Apr-21 06:30N 40°04' E 024°57'6 7.4
2018-Apr-21 05:43N 40°04' E 024°49'2 7.4
2018-Apr-21 05:29N 40°05' E 024°47'4 7.3
2018-Apr-21 05:00N 40°05' E 024°42'23 7.4
2018-Apr-21 01:55N 40°02' E 024°13'4 8.5
2018-Apr-21 01:28N 40°00' E 024°08'7 0.2
2018-Apr-19 06:25N 39°56' E 024°02'3 7.1
2018-Apr-19 06:00N 39°57' E 024°06'6 7.2
2018-Apr-19 05:09N 39°59' E 024°13'1 7.3
2018-Apr-19 05:00N 40°00' E 024°14'18 7.7
2018-Apr-19 02:41N 40°03' E 024°37'3 7.8
2018-Apr-19 02:20N 40°04' E 024°40'3 7.9
2018-Apr-19 01:54N 40°04' E 024°45'6 8.0
2018-Apr-19 01:09N 40°05' E 024°53'2 8.1
2018-Apr-19 00:54N 40°05' E 024°55'3 8.2
2018-Apr-19 00:28N 40°06' E 024°60'12 8.4
2018-Apr-18 23:02N 40°05' E 025°16'1 9.0
2018-Apr-18 22:55N 40°05' E 025°17'8 8.6
2018-Apr-18 22:00N 40°04' E 025°27'  
Track history (hours):
 
Tides and Currents Weather Stations Pressure Air Temp Water Temp Dewpoint Dewpoint Depression Visibility Wind Speed Wind Dir Waves Ship Positions

Orel 5

Last reported at 2018-Apr-23 13:30 UTC. Time now 2018-Apr-23 13:51 UTC.
Position N 43°27' E 028°43'.

Length 108 m; draft 2.6 m.

Type: Cargo ship. MMSI: 272059000.

Date/timePositionNaut miles runAvg speedWind from/ knotsBaromVisibWave heightAir tempDewpointWater temp
2018-Apr-23 13:30N 43°27' E 028°43'4 7.8
2018-Apr-23 13:00N 43°24' E 028°39'4 7.5
2018-Apr-23 12:30N 43°21' E 028°36'4 7.7
2018-Apr-23 11:59N 43°17' E 028°33'  
2018-Apr-21 07:09N 40°04' E 025°03'1 7.1
2018-Apr-21 06:59N 40°04' E 025°01'3 7.2
2018-Apr-21 06:30N 40°04' E 024°57'6 7.4
2018-Apr-21 05:43N 40°04' E 024°49'2 7.4
2018-Apr-21 05:29N 40°05' E 024°47'4 7.3
2018-Apr-21 05:00N 40°05' E 024°42'23 7.4
2018-Apr-21 01:55N 40°02' E 024°13'4 8.5
2018-Apr-21 01:28N 40°00' E 024°08'7 0.2
2018-Apr-19 06:25N 39°56' E 024°02'3 7.1
2018-Apr-19 06:00N 39°57' E 024°06'6 7.2
2018-Apr-19 05:09N 39°59' E 024°13'1 7.3
2018-Apr-19 05:00N 40°00' E 024°14'18 7.7
2018-Apr-19 02:41N 40°03' E 024°37'3 7.8
2018-Apr-19 02:20N 40°04' E 024°40'3 7.9
2018-Apr-19 01:54N 40°04' E 024°45'6 8.0
2018-Apr-19 01:09N 40°05' E 024°53'2 8.1
2018-Apr-19 00:54N 40°05' E 024°55'3 8.2
2018-Apr-19 00:28N 40°06' E 024°60'12 8.4
2018-Apr-18 23:02N 40°05' E 025°16'1 9.0
2018-Apr-18 22:55N 40°05' E 025°17'8 8.6
2018-Apr-18 22:00N 40°04' E 025°27'  

Dump ship's entire track history